Time;durP1;ratioP1;P1;durP2;ratioP2;P2;SDS_P1;SDS_P2;PMS_P1;PMS_P2;Temp;Humidity;BMP_temperature;BMP_pressure;BME280_temperature;BME280_humidity;BME280_pressure;Samples;Min_cycle;Max_cycle;Signal;HPM_P1;HPM_P2
2022/06/19 00:01:35;;;;;;;9.57;2.30;;;16.00;77.80;;;;;;5049999;28;20247;-77
2022/06/19 00:04:07;;;;;;;10.53;3.07;;;16.00;78.20;;;;;;5049409;28;20216;-77
2022/06/19 00:06:35;;;;;;;6.37;2.20;;;15.90;78.90;;;;;;5047611;28;20223;-77
2022/06/19 00:09:02;;;;;;;13.67;3.00;;;15.90;78.60;;;;;;5046757;28;20349;-78
2022/06/19 00:11:29;;;;;;;13.23;2.83;;;15.90;78.70;;;;;;5052336;28;20220;-77
2022/06/19 00:13:56;;;;;;;7.87;3.07;;;15.80;78.80;;;;;;5049087;28;20270;-77
2022/06/19 00:16:23;;;;;;;8.67;2.67;;;15.80;78.90;;;;;;5043697;28;20941;-77
2022/06/19 00:18:49;;;;;;;12.70;3.10;;;15.80;78.90;;;;;;5043789;28;20242;-77
2022/06/19 00:21:17;;;;;;;11.17;3.30;;;15.80;79.10;;;;;;5051482;28;20216;-77
2022/06/19 00:23:45;;;;;;;13.03;3.47;;;15.70;79.40;;;;;;5041341;28;20235;-77
2022/06/19 00:26:12;;;;;;;9.63;2.80;;;15.60;79.20;;;;;;5051605;28;20225;-77
2022/06/19 00:28:40;;;;;;;8.80;2.80;;;15.60;79.70;;;;;;5050152;28;20235;-77
2022/06/19 00:31:07;;;;;;;10.33;2.60;;;15.50;79.80;;;;;;5047932;28;20236;-78
2022/06/19 00:33:34;;;;;;;9.97;2.57;;;15.40;79.80;;;;;;5047282;28;20752;-77
2022/06/19 00:36:01;;;;;;;11.10;2.80;;;15.40;80.20;;;;;;5047164;28;20220;-77
2022/06/19 00:38:29;;;;;;;11.13;2.77;;;15.30;80.60;;;;;;5047636;28;20228;-77
2022/06/19 00:40:56;;;;;;;9.70;2.87;;;15.20;80.90;;;;;;5050441;28;20226;-77
2022/06/19 00:43:23;;;;;;;11.80;2.60;;;15.20;81.00;;;;;;5047541;28;20239;-77
2022/06/19 00:45:50;;;;;;;11.37;3.00;;;15.10;81.20;;;;;;5047411;28;20625;-77
2022/06/19 00:48:19;;;;;;;10.07;3.10;;;15.10;82.00;;;;;;5063689;28;20220;-77
2022/06/19 00:50:48;;;;;;;13.60;2.97;;;15.00;82.50;;;;;;5047602;28;20224;-77
2022/06/19 00:53:18;;;;;;;9.43;3.00;;;15.00;82.80;;;;;;5048328;28;20231;-77
2022/06/19 00:55:49;;;;;;;13.23;3.00;;;14.90;84.00;;;;;;5049053;28;20235;-78
2022/06/19 00:58:20;;;;;;;10.90;3.53;;;14.90;84.50;;;;;;5048226;28;20248;-77
2022/06/19 01:00:51;;;;;;;11.73;3.70;;;14.80;85.00;;;;;;5048778;28;20227;-77
2022/06/19 01:03:23;;;;;;;12.17;3.77;;;14.80;85.70;;;;;;5048271;28;20228;-78
2022/06/19 01:05:51;;;;;;;14.00;3.70;;;14.70;86.20;;;;;;5049184;28;20230;-77
2022/06/19 01:08:18;;;;;;;11.27;3.27;;;14.70;86.40;;;;;;5048808;28;20822;-77
2022/06/19 01:10:49;;;;;;;11.47;3.53;;;14.70;87.20;;;;;;5048456;28;20752;-77
2022/06/19 01:13:18;;;;;;;15.47;3.40;;;14.60;88.00;;;;;;5047356;28;20230;-77
2022/06/19 01:15:45;;;;;;;10.10;3.67;;;14.60;88.60;;;;;;5047919;28;20232;-77
2022/06/19 01:18:13;;;;;;;12.93;2.97;;;14.50;88.70;;;;;;5047454;28;20607;-77
2022/06/19 01:20:42;;;;;;;12.60;3.23;;;14.50;89.10;;;;;;5046040;28;20235;-77
2022/06/19 01:23:15;;;;;;;13.83;3.73;;;14.40;89.90;;;;;;5048879;28;20223;-76
2022/06/19 01:25:44;;;;;;;13.80;3.47;;;14.30;90.40;;;;;;5048376;28;20778;-77
2022/06/19 01:31:07;;;;;;;17.07;3.80;;;14.30;91.10;;;;;;5045330;28;20235;-76
2022/06/19 01:33:39;;;;;;;12.53;3.50;;;14.20;91.00;;;;;;5048111;28;20223;-76
2022/06/19 01:36:07;;;;;;;15.93;3.90;;;14.10;91.30;;;;;;5047336;28;20242;-77
2022/06/19 01:38:35;;;;;;;14.50;3.27;;;14.10;91.40;;;;;;5063247;28;20236;-77
2022/06/19 01:41:08;;;;;;;15.37;4.07;;;14.00;91.50;;;;;;5048108;28;20227;-77
2022/06/19 01:43:35;;;;;;;15.03;3.87;;;14.00;92.50;;;;;;5048370;28;20222;-77
2022/06/19 01:46:04;;;;;;;15.33;3.07;;;13.90;92.10;;;;;;5048528;28;20223;-77
2022/06/19 01:48:33;;;;;;;23.60;4.47;;;13.90;92.70;;;;;;5047863;28;20254;-77
2022/06/19 01:51:03;;;;;;;13.07;3.00;;;13.90;92.80;;;;;;5062393;28;20223;-77
2022/06/19 01:53:37;;;;;;;16.33;3.60;;;13.80;93.10;;;;;;5048034;28;20228;-78
2022/06/19 01:56:07;;;;;;;11.60;2.93;;;13.80;93.20;;;;;;5047558;28;20235;-77
2022/06/19 01:58:37;;;;;;;16.40;3.63;;;13.80;93.40;;;;;;5048211;28;20234;-77
2022/06/19 02:01:06;;;;;;;16.27;4.37;;;13.80;93.80;;;;;;5046012;28;20317;-77
2022/06/19 02:03:37;;;;;;;14.47;3.50;;;13.70;93.70;;;;;;5047069;28;20266;-76
2022/06/19 02:06:04;;;;;;;12.00;3.37;;;13.70;94.10;;;;;;5050582;28;20224;-76
2022/06/19 02:08:37;;;;;;;13.80;3.10;;;13.70;94.00;;;;;;5048985;28;20237;-76
2022/06/19 02:11:07;;;;;;;14.40;3.23;;;13.60;94.40;;;;;;5050655;28;20692;-76
2022/06/19 02:13:36;;;;;;;10.67;3.03;;;13.60;94.50;;;;;;5051337;28;20653;-77
2022/06/19 02:16:05;;;;;;;13.67;3.20;;;13.70;94.60;;;;;;5049714;28;20310;-77
2022/06/19 02:18:36;;;;;;;15.83;3.77;;;13.60;94.90;;;;;;5050881;28;20321;-77
2022/06/19 02:21:05;;;;;;;13.30;3.47;;;13.60;95.00;;;;;;5049068;28;20223;-77
2022/06/19 02:23:35;;;;;;;19.80;3.63;;;13.70;95.20;;;;;;5051024;28;20247;-77
2022/06/19 02:26:04;;;;;;;15.77;3.43;;;13.60;95.40;;;;;;5051825;28;20236;-77
2022/06/19 02:28:36;;;;;;;15.37;3.97;;;13.60;95.50;;;;;;5051355;28;20307;-77
2022/06/19 02:31:03;;;;;;;16.93;3.90;;;13.70;95.70;;;;;;5049656;28;20231;-77
2022/06/19 02:33:34;;;;;;;15.07;3.80;;;13.70;96.00;;;;;;5051086;28;20257;-77
2022/06/19 02:36:01;;;;;;;13.83;3.83;;;13.60;96.00;;;;;;5049190;28;20591;-77
2022/06/19 02:38:28;;;;;;;18.23;3.77;;;13.60;96.00;;;;;;5050035;28;20219;-77
2022/06/19 02:41:00;;;;;;;12.73;3.40;;;13.60;96.00;;;;;;5050738;28;20591;-77
2022/06/19 02:43:30;;;;;;;15.70;3.93;;;13.70;96.30;;;;;;5050707;28;20223;-77
2022/06/19 02:45:58;;;;;;;15.00;3.87;;;13.60;96.30;;;;;;5050923;28;20699;-77
2022/06/19 02:48:27;;;;;;;17.60;4.23;;;13.60;96.70;;;;;;5050006;28;20249;-77
2022/06/19 02:50:55;;;;;;;13.20;4.17;;;13.60;96.60;;;;;;5049525;28;20733;-77
2022/06/19 02:53:23;;;;;;;13.53;3.90;;;13.50;96.70;;;;;;5049525;28;20716;-77
2022/06/19 02:55:50;;;;;;;13.60;3.70;;;13.50;96.90;;;;;;5050082;28;20227;-76
2022/06/19 02:58:19;;;;;;;20.17;3.97;;;13.50;97.00;;;;;;5049577;28;20528;-77
2022/06/19 03:00:46;;;;;;;15.77;3.40;;;13.50;97.10;;;;;;5049876;28;20421;-76
2022/06/19 03:03:23;;;;;;;16.57;4.07;;;13.50;97.20;;;;;;5048821;28;20242;-77
2022/06/19 03:05:50;;;;;;;19.07;4.53;;;13.50;97.60;;;;;;5050077;28;20236;-76
2022/06/19 03:08:17;;;;;;;14.63;3.27;;;13.50;97.40;;;;;;5049238;28;20314;-77
2022/06/19 03:10:44;;;;;;;12.67;3.73;;;13.50;97.40;;;;;;5049708;28;20231;-76
2022/06/19 03:13:10;;;;;;;14.90;3.53;;;13.50;97.50;;;;;;5048389;28;20242;-77
2022/06/19 03:15:37;;;;;;;16.07;3.97;;;13.50;97.70;;;;;;5051379;28;20345;-76
2022/06/19 03:18:04;;;;;;;15.07;3.40;;;13.50;97.80;;;;;;5053182;28;20223;-77
2022/06/19 03:20:33;;;;;;;15.90;3.63;;;13.50;98.10;;;;;;5050068;28;20230;-77
2022/06/19 03:23:00;;;;;;;14.17;4.17;;;13.50;98.20;;;;;;5050440;28;20229;-78
2022/06/19 03:25:26;;;;;;;16.73;4.23;;;13.50;98.20;;;;;;5050255;28;20227;-77
2022/06/19 03:27:53;;;;;;;12.83;3.50;;;13.50;98.40;;;;;;5048475;28;20223;-77
2022/06/19 03:30:21;;;;;;;13.17;3.90;;;13.50;98.50;;;;;;5049824;28;20235;-77
2022/06/19 03:32:48;;;;;;;12.87;3.57;;;13.50;98.50;;;;;;5049602;28;20238;-77
2022/06/19 03:35:16;;;;;;;11.97;3.70;;;13.50;98.40;;;;;;5049179;28;20224;-77
2022/06/19 03:37:44;;;;;;;17.70;4.00;;;13.50;98.50;;;;;;5050064;28;20311;-77
2022/06/19 03:40:12;;;;;;;14.10;4.00;;;13.60;98.70;;;;;;5040905;28;20786;-77
2022/06/19 03:42:39;;;;;;;17.57;4.00;;;13.60;98.70;;;;;;5049430;28;20737;-77
2022/06/19 03:45:08;;;;;;;15.43;4.33;;;13.60;98.90;;;;;;5048719;28;20237;-77
2022/06/19 03:47:34;;;;;;;15.60;3.60;;;13.60;98.90;;;;;;5049246;28;20238;-77
2022/06/19 03:50:02;;;;;;;15.43;3.60;;;13.60;99.00;;;;;;5048627;28;20266;-76
2022/06/19 03:52:29;;;;;;;13.20;4.10;;;13.60;99.20;;;;;;5048814;28;20220;-77
2022/06/19 03:54:57;;;;;;;19.07;4.47;;;13.60;99.00;;;;;;5047807;28;20235;-77
2022/06/19 03:57:24;;;;;;;15.77;3.20;;;13.70;99.30;;;;;;5054127;28;20708;-77
2022/06/19 03:59:52;;;;;;;14.80;3.80;;;13.70;99.20;;;;;;5049666;28;20234;-76
2022/06/19 04:02:18;;;;;;;15.17;3.77;;;13.70;99.10;;;;;;5043599;28;21023;-77
2022/06/19 04:04:45;;;;;;;16.30;3.93;;;13.70;99.20;;;;;;5046569;28;20223;-77
2022/06/19 04:07:15;;;;;;;16.10;4.07;;;13.70;99.30;;;;;;5047190;28;20235;-77
2022/06/19 04:09:41;;;;;;;19.93;3.90;;;13.70;99.40;;;;;;5047179;28;20233;-76
2022/06/19 04:12:11;;;;;;;11.83;3.50;;;13.80;99.40;;;;;;5047205;28;20289;-77
2022/06/19 04:14:38;;;;;;;14.37;4.30;;;13.80;99.70;;;;;;5047036;28;20328;-77
2022/06/19 04:17:05;;;;;;;15.00;3.90;;;13.80;99.50;;;;;;5046089;28;20318;-77
2022/06/19 04:19:32;;;;;;;14.80;3.83;;;13.80;99.70;;;;;;5047501;28;20656;-77
2022/06/19 04:21:58;;;;;;;13.53;3.60;;;13.90;99.50;;;;;;5047036;28;20237;-77
2022/06/19 04:24:28;;;;;;;15.63;3.80;;;13.90;99.60;;;;;;5046851;28;20235;-77
2022/06/19 04:26:54;;;;;;;17.37;4.10;;;13.90;99.60;;;;;;5045732;28;20223;-77
2022/06/19 04:29:22;;;;;;;10.97;3.53;;;13.90;99.40;;;;;;5046118;28;20243;-78
2022/06/19 04:31:49;;;;;;;16.43;4.43;;;14.00;99.50;;;;;;5046879;28;20258;-77
2022/06/19 04:34:16;;;;;;;14.10;3.90;;;14.00;99.40;;;;;;5046399;28;20238;-78
2022/06/19 04:36:43;;;;;;;18.03;4.23;;;14.00;99.40;;;;;;5045794;28;20222;-77
2022/06/19 04:39:11;;;;;;;17.80;3.93;;;14.00;99.40;;;;;;5046775;28;20681;-77
2022/06/19 04:41:39;;;;;;;11.17;3.10;;;14.00;99.60;;;;;;5046930;28;20595;-77
2022/06/19 04:44:08;;;;;;;12.83;3.83;;;14.10;99.50;;;;;;5046376;28;20228;-77
2022/06/19 04:46:36;;;;;;;14.60;3.63;;;14.10;99.50;;;;;;5047178;28;20711;-77
2022/06/19 04:49:03;;;;;;;14.13;3.00;;;14.20;99.60;;;;;;5046963;28;20568;-77
2022/06/19 04:51:30;;;;;;;17.93;3.73;;;14.20;99.60;;;;;;5046437;28;20242;-77
2022/06/19 04:53:57;;;;;;;14.23;4.00;;;14.20;99.60;;;;;;5044031;28;20231;-77
2022/06/19 04:56:24;;;;;;;17.03;3.57;;;14.30;99.50;;;;;;5045633;28;24811;-77
2022/06/19 04:58:51;;;;;;;13.97;3.40;;;14.30;99.50;;;;;;5046155;28;20238;-77
2022/06/19 05:01:23;;;;;;;16.53;3.93;;;14.40;99.60;;;;;;5045535;28;20262;-77
2022/06/19 05:03:52;;;;;;;12.73;4.07;;;14.50;99.80;;;;;;5046354;28;20228;-78
2022/06/19 05:06:19;;;;;;;13.13;3.60;;;14.50;99.60;;;;;;5045134;28;20243;-77
2022/06/19 05:08:45;;;;;;;14.30;3.37;;;14.60;99.60;;;;;;5044492;28;20219;-77
2022/06/19 05:11:13;;;;;;;13.07;3.87;;;14.70;99.50;;;;;;5045509;28;20235;-77
2022/06/19 05:13:41;;;;;;;15.80;3.67;;;14.80;99.50;;;;;;5045818;28;20228;-77
2022/06/19 05:16:11;;;;;;;17.83;4.27;;;14.80;99.40;;;;;;5044414;28;20286;-76
2022/06/19 05:18:38;;;;;;;15.83;3.47;;;14.90;99.30;;;;;;5046887;28;20728;-77
2022/06/19 05:21:07;;;;;;;12.33;3.20;;;15.00;99.20;;;;;;5046120;28;20220;-76
2022/06/19 05:23:36;;;;;;;12.10;3.20;;;15.00;99.00;;;;;;5046626;28;20323;-76
2022/06/19 05:26:07;;;;;;;15.13;3.70;;;15.10;98.90;;;;;;5046649;28;20242;-76
2022/06/19 05:28:34;;;;;;;13.90;4.20;;;15.10;98.90;;;;;;5045958;28;20228;-76
2022/06/19 05:31:02;;;;;;;13.27;4.13;;;15.20;98.80;;;;;;5046578;28;20682;-77
2022/06/19 05:33:30;;;;;;;10.80;2.97;;;15.20;98.70;;;;;;5045091;28;20231;-76
2022/06/19 05:35:57;;;;;;;13.17;3.70;;;15.20;98.60;;;;;;5046819;28;20227;-76
2022/06/19 05:38:26;;;;;;;11.53;3.77;;;15.20;98.50;;;;;;5046182;28;20262;-77
2022/06/19 05:40:54;;;;;;;10.83;3.17;;;15.20;98.50;;;;;;5050476;28;20354;-77
2022/06/19 05:43:22;;;;;;;12.57;2.93;;;15.20;98.40;;;;;;5049262;28;20250;-79
2022/06/19 05:45:52;;;;;;;16.43;3.57;;;15.30;98.40;;;;;;5038642;28;20681;-78
2022/06/19 05:48:19;;;;;;;12.77;3.60;;;15.30;98.40;;;;;;5047656;28;20368;-78
2022/06/19 05:50:46;;;;;;;11.60;3.30;;;15.30;98.30;;;;;;5050057;28;20225;-77
2022/06/19 05:53:13;;;;;;;16.00;3.77;;;15.30;98.10;;;;;;5047306;28;20242;-77
2022/06/19 05:55:41;;;;;;;13.43;3.47;;;15.30;98.10;;;;;;5050404;28;20234;-78
2022/06/19 05:58:08;;;;;;;14.40;3.67;;;15.30;98.20;;;;;;5049167;28;20268;-77
2022/06/19 06:00:35;;;;;;;12.70;3.80;;;15.30;98.20;;;;;;5050079;28;20723;-77
2022/06/19 06:03:01;;;;;;;12.97;3.63;;;15.30;98.10;;;;;;5048903;28;20223;-77
2022/06/19 06:05:28;;;;;;;16.90;4.40;;;15.30;98.00;;;;;;5051569;28;20249;-78
2022/06/19 06:07:55;;;;;;;9.87;4.40;;;15.40;97.90;;;;;;5050244;28;20326;-77
2022/06/19 06:10:22;;;;;;;12.10;4.00;;;15.40;97.90;;;;;;5050889;28;20242;-77
2022/06/19 06:12:50;;;;;;;11.77;3.47;;;15.40;97.90;;;;;;5051452;28;20238;-77
2022/06/19 06:15:17;;;;;;;11.37;3.33;;;15.40;97.90;;;;;;5051579;28;20900;-78
2022/06/19 06:17:43;;;;;;;12.53;3.67;;;15.40;97.80;;;;;;5050649;28;20227;-77
2022/06/19 06:20:10;;;;;;;16.77;4.80;;;15.40;97.90;;;;;;5050968;28;20236;-77
2022/06/19 06:22:40;;;;;;;10.57;2.77;;;15.40;97.90;;;;;;5050877;28;20228;-77
2022/06/19 06:25:07;;;;;;;9.57;3.00;;;15.40;97.90;;;;;;5050707;28;20240;-77
2022/06/19 06:27:34;;;;;;;12.10;3.27;;;15.40;97.90;;;;;;5050784;28;20712;-77
2022/06/19 06:30:02;;;;;;;13.40;3.50;;;15.40;97.90;;;;;;5051121;28;20326;-77
2022/06/19 06:32:29;;;;;;;9.23;3.70;;;15.40;98.40;;;;;;5049640;28;20334;-77
2022/06/19 06:34:56;;;;;;;10.73;3.47;;;15.40;98.00;;;;;;5049115;28;20224;-77
2022/06/19 06:37:23;;;;;;;13.13;3.57;;;15.40;98.10;;;;;;5049897;28;20232;-77
2022/06/19 06:39:50;;;;;;;15.13;3.10;;;15.40;98.00;;;;;;5050292;28;20234;-77
2022/06/19 06:42:16;;;;;;;8.33;2.90;;;15.40;97.90;;;;;;5064701;28;20235;-77
2022/06/19 06:44:43;;;;;;;10.43;2.97;;;15.40;97.90;;;;;;5050126;28;20259;-77
2022/06/19 06:47:11;;;;;;;8.30;3.30;;;15.50;97.70;;;;;;5049689;28;20785;-78
2022/06/19 06:49:38;;;;;;;8.00;2.63;;;15.50;97.40;;;;;;5051426;28;20239;-78
2022/06/19 06:52:08;;;;;;;13.00;3.30;;;15.50;97.30;;;;;;5049219;28;20226;-77
2022/06/19 06:54:36;;;;;;;9.17;2.40;;;15.50;97.20;;;;;;5050037;28;20243;-77
2022/06/19 06:57:04;;;;;;;34.53;15.90;;;15.60;97.20;;;;;;5048421;28;20766;-77
2022/06/19 06:59:31;;;;;;;13.53;4.50;;;15.60;97.10;;;;;;5048310;28;20283;-77
2022/06/19 07:01:57;;;;;;;8.47;2.67;;;15.70;97.00;;;;;;5050394;28;20223;-78
2022/06/19 07:04:26;;;;;;;10.53;3.20;;;15.70;96.90;;;;;;5049916;28;20228;-78
2022/06/19 07:06:53;;;;;;;9.53;2.67;;;15.80;96.80;;;;;;5049817;28;20224;-78
2022/06/19 07:09:19;;;;;;;9.20;3.10;;;15.90;96.60;;;;;;5049797;28;20600;-77
2022/06/19 07:11:47;;;;;;;7.60;2.50;;;16.00;96.40;;;;;;5064973;28;20232;-78
2022/06/19 07:14:15;;;;;;;8.97;2.83;;;16.10;96.50;;;;;;5048931;28;20228;-78
2022/06/19 07:16:41;;;;;;;7.07;2.53;;;16.20;96.50;;;;;;5047837;28;20224;-78
2022/06/19 07:19:08;;;;;;;9.03;2.60;;;16.30;96.40;;;;;;5049841;28;20232;-78
2022/06/19 07:21:37;;;;;;;8.13;2.45;;;16.50;96.30;;;;;;5049640;28;20224;-77
2022/06/19 07:24:05;;;;;;;6.90;2.17;;;16.80;95.80;;;;;;5049513;28;20230;-77
2022/06/19 07:26:32;;;;;;;7.55;2.10;;;17.10;95.50;;;;;;5049860;28;20234;-77
2022/06/19 07:28:59;;;;;;;6.18;2.65;;;17.40;94.90;;;;;;5049262;28;20224;-77
2022/06/19 07:31:25;;;;;;;8.20;2.33;;;17.60;94.70;;;;;;5048709;28;20216;-78
2022/06/19 07:33:52;;;;;;;9.35;2.20;;;17.70;94.30;;;;;;5049113;28;20750;-77
2022/06/19 07:36:21;;;;;;;4.95;2.08;;;17.90;94.00;;;;;;5058389;28;20224;-77
2022/06/19 07:38:50;;;;;;;8.00;2.47;;;18.20;93.60;;;;;;5059421;28;20286;-79
2022/06/19 07:41:17;;;;;;;7.85;2.47;;;18.40;93.00;;;;;;5064928;28;20224;-78
2022/06/19 07:43:45;;;;;;;6.90;2.20;;;18.60;92.60;;;;;;5049831;28;20220;-78
2022/06/19 07:46:12;;;;;;;6.65;2.10;;;18.70;91.60;;;;;;5049379;28;20236;-78
2022/06/19 07:51:26;;;;;;;8.63;1.90;;;18.90;91.30;;;;;;5050208;28;20228;-78
2022/06/19 07:53:54;;;;;;;6.20;2.15;;;19.20;91.00;;;;;;5049995;28;20240;-78
2022/06/19 07:56:20;;;;;;;8.50;2.08;;;19.40;90.70;;;;;;5048813;28;20228;-78
2022/06/19 07:58:47;;;;;;;5.20;1.92;;;19.70;90.20;;;;;;5046824;28;20223;-78
2022/06/19 08:01:15;;;;;;;7.10;1.90;;;20.00;88.60;;;;;;5046543;28;20767;-78
2022/06/19 08:03:41;;;;;;;4.18;1.75;;;20.30;86.80;;;;;;5048405;28;20274;-78
2022/06/19 08:06:08;;;;;;;5.75;1.67;;;20.60;86.40;;;;;;5049152;28;20228;-78
2022/06/19 08:08:36;;;;;;;4.07;1.90;;;20.80;85.30;;;;;;5049910;28;20235;-78
2022/06/19 08:11:04;;;;;;;7.82;1.85;;;21.10;84.60;;;;;;5043249;28;20599;-82
2022/06/19 08:13:34;;;;;;;8.85;2.13;;;21.30;83.10;;;;;;5049152;28;20274;-82
2022/06/19 08:16:03;;;;;;;4.38;1.58;;;21.50;81.60;;;;;;5046520;28;20721;-82
2022/06/19 08:18:31;;;;;;;6.38;1.42;;;21.70;80.00;;;;;;5030071;28;20216;-82
2022/06/19 08:20:57;;;;;;;4.22;1.50;;;21.80;79.00;;;;;;5049970;28;20227;-82
2022/06/19 08:23:24;;;;;;;4.72;1.38;;;21.90;78.10;;;;;;5039449;28;21037;-82
2022/06/19 08:25:51;;;;;;;3.65;1.35;;;21.90;76.00;;;;;;5046497;28;20905;-82
2022/06/19 08:28:21;;;;;;;5.07;1.60;;;21.90;74.20;;;;;;5044564;28;20234;-82
2022/06/19 08:30:48;;;;;;;3.40;1.75;;;21.90;74.30;;;;;;5039833;28;20684;-83
2022/06/19 08:33:15;;;;;;;3.47;1.40;;;22.00;73.90;;;;;;5042976;28;20239;-82
2022/06/19 08:35:45;;;;;;;3.42;1.27;;;22.00;74.20;;;;;;5046661;28;20238;-83
2022/06/19 08:38:16;;;;;;;6.97;1.67;;;22.10;72.10;;;;;;5035632;28;20332;-82
2022/06/19 08:41:03;;;;;;;4.20;1.63;;;22.10;71.50;;;;;;5047896;28;20312;-83
2022/06/19 08:43:49;;;;;;;7.35;1.60;;;22.00;71.10;;;;;;5035435;28;20228;-82
2022/06/19 08:46:22;;;;;;;4.20;1.50;;;21.90;68.90;;;;;;5043766;28;20950;-82
2022/06/19 08:49:03;;;;;;;4.13;1.42;;;21.70;71.50;;;;;;5036304;28;20307;-82
2022/06/19 08:51:39;;;;;;;5.20;1.60;;;21.50;71.70;;;;;;5038193;28;20307;-83
2022/06/19 08:54:19;;;;;;;4.53;1.30;;;21.40;71.50;;;;;;5038583;28;20707;-82
2022/06/19 08:56:53;;;;;;;3.35;1.30;;;21.30;72.00;;;;;;5053436;28;20733;-82
2022/06/19 08:59:31;;;;;;;4.97;1.40;;;21.30;71.20;;;;;;5040744;28;20224;-82
2022/06/19 09:02:08;;;;;;;5.50;1.60;;;21.20;70.20;;;;;;5046103;28;20251;-82
2022/06/19 09:08:02;;;;;;;4.80;1.65;;;21.10;72.30;;;;;;4967012;28;20306;-82
2022/06/19 09:10:41;;;;;;;4.32;1.33;;;21.10;71.50;;;;;;4983950;28;20799;-83
2022/06/19 09:13:22;;;;;;;4.10;1.67;;;21.20;71.40;;;;;;5009590;28;20362;-82
2022/06/19 09:15:57;;;;;;;3.65;1.45;;;21.30;70.90;;;;;;5045300;28;20774;-83
2022/06/19 09:18:36;;;;;;;4.40;1.60;;;21.30;70.80;;;;;;5046793;28;20290;-83
2022/06/19 09:21:09;;;;;;;3.88;1.38;;;21.30;71.90;;;;;;5040326;28;20299;-83
2022/06/19 09:23:55;;;;;;;5.43;1.52;;;21.50;71.20;;;;;;5043786;28;20255;-83
2022/06/19 09:26:27;;;;;;;5.82;1.73;;;21.60;70.40;;;;;;5035030;28;20235;-82
2022/06/19 09:28:59;;;;;;;3.92;1.48;;;21.80;71.50;;;;;;5044121;28;20234;-83
2022/06/19 09:31:32;;;;;;;2.10;1.20;;;22.20;70.20;;;;;;5043744;28;20232;-83
2022/06/19 09:34:04;;;;;;;4.25;1.70;;;22.60;70.60;;;;;;5042227;28;20240;-83
2022/06/19 09:36:36;;;;;;;2.90;1.15;;;23.00;69.60;;;;;;5040966;28;20601;-82
2022/06/19 09:39:11;;;;;;;5.43;1.50;;;23.40;69.30;;;;;;5038661;28;20216;-83
2022/06/19 09:41:43;;;;;;;3.83;1.55;;;23.90;68.40;;;;;;5037477;28;20219;-82
2022/06/19 09:44:15;;;;;;;3.35;1.42;;;24.30;68.50;;;;;;5044104;28;20891;-82
2022/06/19 09:46:49;;;;;;;5.93;1.83;;;24.70;67.10;;;;;;5043936;28;20525;-83
2022/06/19 09:49:21;;;;;;;4.35;1.58;;;25.00;66.50;;;;;;5037206;28;20473;-83
2022/06/19 09:51:54;;;;;;;6.10;1.35;;;25.20;65.80;;;;;;5036421;28;20223;-83
2022/06/19 09:54:26;;;;;;;5.25;1.70;;;25.30;65.50;;;;;;5030156;28;20387;-82
2022/06/19 09:57:00;;;;;;;5.43;1.83;;;25.40;64.90;;;;;;5040898;28;20697;-83
2022/06/19 09:59:33;;;;;;;4.15;1.60;;;25.20;63.80;;;;;;5044727;28;20301;-82
2022/06/19 10:02:22;;;;;;;5.18;1.90;;;25.00;64.40;;;;;;5038597;28;20235;-82
2022/06/19 10:04:55;;;;;;;4.72;1.88;;;24.70;64.30;;;;;;5038737;28;20224;-82
2022/06/19 10:07:27;;;;;;;5.05;1.83;;;24.40;64.10;;;;;;5045327;28;20668;-82
2022/06/19 10:10:00;;;;;;;3.22;1.70;;;24.00;64.90;;;;;;5045064;28;20228;-83
2022/06/19 10:12:33;;;;;;;2.95;1.52;;;23.70;66.00;;;;;;5030345;28;20287;-82
2022/06/19 10:15:04;;;;;;;4.88;1.70;;;23.30;67.40;;;;;;5038421;28;20225;-82
2022/06/19 10:17:41;;;;;;;5.55;1.63;;;23.00;68.80;;;;;;5042376;28;20311;-82
2022/06/19 10:20:14;;;;;;;8.18;2.28;;;22.80;69.50;;;;;;5040409;28;20247;-82
2022/06/19 10:22:52;;;;;;;4.88;1.50;;;22.50;70.50;;;;;;5039909;28;20706;-82
2022/06/19 10:25:45;;;;;;;4.05;1.70;;;22.30;71.10;;;;;;5035102;28;21148;-81
2022/06/19 10:28:29;;;;;;;6.70;1.85;;;22.10;71.10;;;;;;5043193;28;20262;-82
2022/06/19 10:31:05;;;;;;;6.63;1.85;;;21.90;71.80;;;;;;5057687;28;20223;-81
2022/06/19 10:33:46;;;;;;;6.05;1.95;;;21.70;73.20;;;;;;5042166;28;21938;-80
2022/06/19 10:36:19;;;;;;;4.43;2.08;;;21.50;74.00;;;;;;5045829;28;20307;-78
2022/06/19 10:39:03;;;;;;;6.50;2.00;;;21.30;74.20;;;;;;5066434;28;20223;-79
2022/06/19 10:44:29;;;;;;;5.30;2.33;;;20.80;76.20;;;;;;5038719;28;20231;-79
2022/06/19 10:47:07;;;;;;;6.82;2.08;;;20.50;77.90;;;;;;5049034;28;20599;-79
2022/06/19 10:49:43;;;;;;;7.47;2.40;;;20.30;78.10;;;;;;5050383;28;20615;-79
2022/06/19 10:52:16;;;;;;;5.80;2.33;;;20.10;79.20;;;;;;5049087;28;20227;-80
2022/06/19 10:55:11;;;;;;;7.22;2.40;;;20.00;80.00;;;;;;5049865;28;20232;-80
2022/06/19 10:57:54;;;;;;;7.13;2.40;;;19.90;81.10;;;;;;5064518;28;20248;-79
2022/06/19 11:00:21;;;;;;;6.20;2.60;;;19.80;81.50;;;;;;5049132;28;20259;-79
2022/06/19 11:05:48;;;;;;;8.60;2.50;;;19.80;82.00;;;;;;5058322;28;20306;-79
2022/06/19 11:08:16;;;;;;;8.05;2.40;;;19.80;82.60;;;;;;5047348;28;20310;-79
2022/06/19 11:10:49;;;;;;;7.63;2.40;;;19.80;82.20;;;;;;5049412;28;20768;-79
2022/06/19 11:13:16;;;;;;;9.70;2.83;;;19.70;82.30;;;;;;5041978;28;20230;-79
2022/06/19 11:15:45;;;;;;;7.05;2.45;;;19.70;82.70;;;;;;5049780;28;20231;-79
2022/06/19 11:18:15;;;;;;;8.57;2.60;;;19.70;82.60;;;;;;5049420;28;20230;-79
2022/06/19 11:20:54;;;;;;;7.43;2.03;;;19.70;83.20;;;;;;5050110;28;20227;-79
2022/06/19 11:23:28;;;;;;;7.03;3.08;;;19.60;83.20;;;;;;5028642;28;20220;-79
2022/06/19 11:26:07;;;;;;;8.32;3.15;;;19.60;83.60;;;;;;5047352;28;20410;-79
2022/06/19 11:28:47;;;;;;;5.50;2.42;;;19.50;84.30;;;;;;5049011;28;20230;-79
2022/06/19 11:31:17;;;;;;;6.80;2.30;;;19.50;85.20;;;;;;5049129;28;20317;-79
2022/06/19 11:33:44;;;;;;;11.23;2.67;;;19.60;84.60;;;;;;5049072;28;20224;-79
2022/06/19 11:36:28;;;;;;;7.25;2.50;;;19.60;84.30;;;;;;5047603;28;20251;-80
2022/06/19 11:38:55;;;;;;;7.43;2.35;;;19.70;84.60;;;;;;5046636;28;20232;-79
2022/06/19 11:41:31;;;;;;;9.45;4.40;;;19.70;84.30;;;;;;5046793;28;20247;-79
2022/06/19 11:44:04;;;;;;;12.25;2.90;;;19.70;85.10;;;;;;5061776;28;20242;-79
2022/06/19 11:46:31;;;;;;;8.55;2.80;;;19.70;85.10;;;;;;5044309;28;20227;-79
2022/06/19 11:49:30;;;;;;;6.72;2.25;;;19.80;85.60;;;;;;5046780;28;20658;-79
2022/06/19 11:52:02;;;;;;;9.10;3.08;;;19.80;87.90;;;;;;5044768;28;20315;-79
2022/06/19 11:54:33;;;;;;;8.48;2.65;;;19.90;86.70;;;;;;5044114;28;20236;-79
2022/06/19 11:57:00;;;;;;;8.88;2.80;;;20.00;86.10;;;;;;5046265;28;20278;-79
2022/06/19 11:59:39;;;;;;;8.77;2.50;;;20.10;86.40;;;;;;5046020;28;20302;-79
2022/06/19 12:02:22;;;;;;;9.85;3.15;;;20.20;86.10;;;;;;5046012;28;20273;-79
2022/06/19 12:04:54;;;;;;;8.40;2.75;;;20.30;86.90;;;;;;5041585;28;20270;-79
2022/06/19 12:07:25;;;;;;;9.13;2.88;;;20.40;86.30;;;;;;5047573;28;20234;-79
2022/06/19 12:09:58;;;;;;;7.78;2.88;;;20.40;86.20;;;;;;5025173;28;20266;-79
2022/06/19 12:12:26;;;;;;;8.27;2.40;;;20.40;85.80;;;;;;5032743;28;20235;-79
2022/06/19 12:14:57;;;;;;;11.15;2.78;;;20.40;86.00;;;;;;5057199;28;20259;-79
2022/06/19 12:17:26;;;;;;;8.82;2.85;;;20.40;87.30;;;;;;5056971;28;20236;-79
2022/06/19 12:19:57;;;;;;;10.27;3.50;;;20.20;88.60;;;;;;5048689;28;20231;-80
2022/06/19 12:22:36;;;;;;;9.85;3.28;;;20.10;90.20;;;;;;5043188;28;20232;-80
2022/06/19 12:25:10;;;;;;;11.40;3.25;;;19.80;90.10;;;;;;5041372;28;20673;-81
2022/06/19 12:27:43;;;;;;;14.77;3.17;;;19.60;91.00;;;;;;5042411;28;20237;-81
2022/06/19 12:30:17;;;;;;;9.52;3.35;;;19.20;91.50;;;;;;5038645;28;20699;-81
2022/06/19 12:32:47;;;;;;;8.75;3.20;;;18.90;92.50;;;;;;5040930;28;20227;-82
2022/06/19 12:35:21;;;;;;;11.20;3.25;;;18.60;93.40;;;;;;5039616;28;20232;-81
2022/06/19 12:37:49;;;;;;;10.32;3.50;;;18.20;93.40;;;;;;5043578;28;20893;-81
2022/06/19 12:40:19;;;;;;;11.25;3.20;;;17.90;94.20;;;;;;5044246;28;20227;-81
2022/06/19 12:42:51;;;;;;;11.80;3.45;;;17.70;95.10;;;;;;5040152;28;20236;-81
2022/06/19 12:45:45;;;;;;;12.30;3.63;;;17.40;96.10;;;;;;5046161;28;20547;-81
2022/06/19 12:48:35;;;;;;;12.13;3.70;;;17.20;96.90;;;;;;5039605;28;20220;-81
2022/06/19 12:51:08;;;;;;;10.67;3.40;;;17.00;97.40;;;;;;5045150;28;20596;-81
2022/06/19 12:54:05;;;;;;;10.77;3.67;;;16.90;97.30;;;;;;5039134;28;20280;-83
2022/06/19 12:56:43;;;;;;;12.33;3.50;;;16.70;98.30;;;;;;5031823;28;20228;-81
2022/06/19 12:59:56;;;;;;;13.30;3.90;;;16.70;98.70;;;;;;5039573;28;20235;-81
2022/06/19 13:02:36;;;;;;;11.67;3.40;;;16.50;99.50;;;;;;4956974;28;20222;-84
2022/06/19 13:05:13;;;;;;;11.87;4.17;;;16.40;99.50;;;;;;4967943;28;20254;-79
2022/06/19 13:07:53;;;;;;;9.13;3.50;;;16.30;99.80;;;;;;5005772;28;20774;-79
2022/06/19 13:10:45;;;;;;;11.13;4.03;;;16.30;99.90;;;;;;5041541;28;20858;-79
2022/06/19 13:13:29;;;;;;;13.63;3.67;;;16.30;99.90;;;;;;5037635;28;20841;-81